Liner du mardi 06 février

Aller en bas

Liner du mardi 06 février

Message  laser le Lun 5 Fév 2018 - 11:23

yop yop  attention le vol de ce soir est de 2 hrs départ max 21 hrs
MMUN - 0 0 N21°02'33.87" W086°52'23.52" CANCUN AEROPUERTO INTERNACION
CZM 112.5 183 32 N20°30'26.90" W086°54'43.20" COZUMEL
OBTAM - 179 25 N20°05'21.00" W086°54'28.00" OBTAM
ANIKO - 179 62 N19°02'55.00" W086°54'23.00" ANIKO
URIOS - 179 37 N18°25'31.00" W086°53'54.00" URIOS
LANDA - 178 30 N17°55'18.00" W086°53'30.00" LANDA
UTILA - 178 109 N16°06'36.00" W086°51'48.00" UTILA
BTO 113.5 179 22 N15°44'12.09" W086°51'51.01" BONITO
MGA 112.1 168 220 N12°08'22.96" W086°10'27.14" MANAGUA
LISPA - 137 60 N11°23'24.00" W085°29'54.00" LISPA
ULAPO - 135 28 N11°02'56.70" W085°10'25.50" ULAPO
MROC - 136 85 N09°59'38.05" W084°12'31.88" JUAN SANTAMARIA INTL

A waypoint can be enabled/disabled by clicking on it (except first two and last two waypoints).
12 fixes, 710 nm.
Airways:
MMUN SID CZM B881 OBTAM UB881 BTO UZ498 MGA UA502 ULAPO STAR MROC
Provided by Rfsml RouteFinder
METAR:

Departure: MMUN 050947Z 01004KT 7SM FEW015 20/20 A3001 RMK 8/500
Destination: MROC 051000Z 10008KT 9999 FEW030 18/13 A2997 NOSIG

Fuel quantity for Boeing 737-800 (iFly/PMDG)
Fuel Time
Fuel Usage 10646 lbs 02:02
Reserve Fuel 6515 lbs 01:15
Fuel on Board 17161 lbs 03:17



PLN FSX clic ici
RTE PMDG clic ici

________________________________________________________________________________________________________________________________________________________________________________


Mon Matos
Intel Core i7-6700K OC 4.6 GHz/ 32 GO Crucial DDR4 Ballistix Sport LT 4x8 GO 2400MHz CAS 16/ Asus Z170 Deluxe/2xSSD 840 EVO 500GB P3D/2xSSD 840 EVO 250GB/ Mybook WD usb3.0  2Téra/Windows 10 PRO 64 bit
Gigabyte GeForce GTX 980 Ti G1 Gaming - 6 Go DDR5 / Enermax Ligtech 240-ELC-LT240-HP/ Boitier NZXT Phantom 820
Asus VG278 27" 3D/ Acer Z35 Predator 21/9 2560x1080 Incurver G-SYNC/ Antec Truepower Quattro 1200w/P3D V 4.1.7/ChasePlane V 0.4.191Beta Exp
avatar
laser

Number of posts : 2924
Age : 59
Location : Octon 34700
Registration date : 03/09/2008

http://www.youtube.com/user/KOCHONNET?feature=mhee

Revenir en haut Aller en bas

Revenir en haut

- Sujets similaires

 
Permission de ce forum:
Vous ne pouvez pas répondre aux sujets dans ce forum